sensor_id;sensor_type;location;lat;lon;timestamp;temperature;humidity
9425;DHT22;17139;52.140;11.636;2022-11-15T00:02:20;5.00;69.50
9425;DHT22;17139;52.140;11.636;2022-11-15T00:04:47;5.00;68.90
9425;DHT22;17139;52.140;11.636;2022-11-15T00:07:14;4.90;68.80
9425;DHT22;17139;52.140;11.636;2022-11-15T00:09:41;5.00;68.90
9425;DHT22;17139;52.140;11.636;2022-11-15T00:12:08;5.00;68.90
9425;DHT22;17139;52.140;11.636;2022-11-15T00:14:35;5.00;68.90
9425;DHT22;17139;52.140;11.636;2022-11-15T00:17:02;5.00;68.90
9425;DHT22;17139;52.140;11.636;2022-11-15T00:19:31;5.00;68.90
9425;DHT22;17139;52.140;11.636;2022-11-15T00:21:58;4.90;68.80
9425;DHT22;17139;52.140;11.636;2022-11-15T00:24:25;4.90;68.80
9425;DHT22;17139;52.140;11.636;2022-11-15T00:26:53;4.90;68.80
9425;DHT22;17139;52.140;11.636;2022-11-15T00:29:20;4.90;68.80
9425;DHT22;17139;52.140;11.636;2022-11-15T00:31:47;5.50;68.10
9425;DHT22;17139;52.140;11.636;2022-11-15T00:34:14;5.40;67.50
9425;DHT22;17139;52.140;11.636;2022-11-15T00:36:42;5.50;67.60
9425;DHT22;17139;52.140;11.636;2022-11-15T00:39:10;5.40;67.40
9425;DHT22;17139;52.140;11.636;2022-11-15T00:41:37;5.20;67.80
9425;DHT22;17139;52.140;11.636;2022-11-15T00:44:04;5.10;68.10
9425;DHT22;17139;52.140;11.636;2022-11-15T00:46:31;5.10;68.50
9425;DHT22;17139;52.140;11.636;2022-11-15T00:48:58;5.00;68.60
9425;DHT22;17139;52.140;11.636;2022-11-15T00:51:25;4.90;68.60
9425;DHT22;17139;52.140;11.636;2022-11-15T00:53:53;4.90;68.80
9425;DHT22;17139;52.140;11.636;2022-11-15T00:56:20;4.90;68.80
9425;DHT22;17139;52.140;11.636;2022-11-15T00:58:47;4.80;68.70
9425;DHT22;17139;52.140;11.636;2022-11-15T01:01:15;4.90;68.80
9425;DHT22;17139;52.140;11.636;2022-11-15T01:03:42;4.80;68.80
9425;DHT22;17139;52.140;11.636;2022-11-15T01:06:10;4.80;68.80
9425;DHT22;17139;52.140;11.636;2022-11-15T01:08:38;5.30;68.70
9425;DHT22;17139;52.140;11.636;2022-11-15T01:11:11;5.20;67.50
9425;DHT22;17139;52.140;11.636;2022-11-15T01:13:39;5.40;67.80
9425;DHT22;17139;52.140;11.636;2022-11-15T01:16:07;5.20;67.60
9425;DHT22;17139;52.140;11.636;2022-11-15T01:18:37;5.10;68.00
9425;DHT22;17139;52.140;11.636;2022-11-15T01:21:06;5.00;68.40
9425;DHT22;17139;52.140;11.636;2022-11-15T01:23:33;5.00;68.60
9425;DHT22;17139;52.140;11.636;2022-11-15T01:26:00;4.90;68.70
9425;DHT22;17139;52.140;11.636;2022-11-15T01:28:31;4.80;68.70
9425;DHT22;17139;52.140;11.636;2022-11-15T01:30:59;4.90;68.80
9425;DHT22;17139;52.140;11.636;2022-11-15T01:33:26;4.80;68.70
9425;DHT22;17139;52.140;11.636;2022-11-15T01:35:53;4.80;68.70
9425;DHT22;17139;52.140;11.636;2022-11-15T01:38:21;4.80;68.80
9425;DHT22;17139;52.140;11.636;2022-11-15T01:40:48;4.80;68.80
9425;DHT22;17139;52.140;11.636;2022-11-15T01:43:20;4.80;68.70
9425;DHT22;17139;52.140;11.636;2022-11-15T01:45:52;5.30;68.20
9425;DHT22;17139;52.140;11.636;2022-11-15T01:48:21;5.20;67.70
9425;DHT22;17139;52.140;11.636;2022-11-15T01:50:49;5.30;68.00
9425;DHT22;17139;52.140;11.636;2022-11-15T01:53:19;5.20;67.80
9425;DHT22;17139;52.140;11.636;2022-11-15T01:55:48;5.10;68.10
9425;DHT22;17139;52.140;11.636;2022-11-15T01:58:15;5.00;68.50
9425;DHT22;17139;52.140;11.636;2022-11-15T02:00:42;4.90;68.60
9425;DHT22;17139;52.140;11.636;2022-11-15T02:03:11;4.90;68.80
9425;DHT22;17139;52.140;11.636;2022-11-15T02:05:38;4.80;68.70
9425;DHT22;17139;52.140;11.636;2022-11-15T02:08:06;4.80;68.80
9425;DHT22;17139;52.140;11.636;2022-11-15T02:10:33;4.80;68.70
9425;DHT22;17139;52.140;11.636;2022-11-15T02:13:00;4.70;68.70
9425;DHT22;17139;52.140;11.636;2022-11-15T02:15:34;4.70;69.50
9425;DHT22;17139;52.140;11.636;2022-11-15T02:18:22;4.70;68.80
9425;DHT22;17139;52.140;11.636;2022-11-15T02:21:02;4.80;68.80
9425;DHT22;17139;52.140;11.636;2022-11-15T02:30:21;4.70;68.90
9425;DHT22;17139;52.140;11.636;2022-11-15T02:32:52;5.60;67.00
9425;DHT22;17139;52.140;11.636;2022-11-15T02:35:29;5.30;67.10
9425;DHT22;17139;52.140;11.636;2022-11-15T02:38:07;5.10;67.70
9425;DHT22;17139;52.140;11.636;2022-11-15T02:40:41;5.00;68.30
9425;DHT22;17139;52.140;11.636;2022-11-15T02:43:17;4.90;68.50
9425;DHT22;17139;52.140;11.636;2022-11-15T02:46:09;4.90;68.80
9425;DHT22;17139;52.140;11.636;2022-11-15T02:48:41;4.80;68.80
9425;DHT22;17139;52.140;11.636;2022-11-15T02:51:09;4.70;68.80
9425;DHT22;17139;52.140;11.636;2022-11-15T02:53:36;4.70;68.80
9425;DHT22;17139;52.140;11.636;2022-11-15T02:56:04;4.70;68.80
9425;DHT22;17139;52.140;11.636;2022-11-15T02:58:58;4.70;68.80
9425;DHT22;17139;52.140;11.636;2022-11-15T03:01:38;4.70;68.70
9425;DHT22;17139;52.140;11.636;2022-11-15T03:04:18;5.20;68.40
9425;DHT22;17139;52.140;11.636;2022-11-15T03:06:55;5.10;67.90
9425;DHT22;17139;52.140;11.636;2022-11-15T03:09:30;4.90;68.20
9425;DHT22;17139;52.140;11.636;2022-11-15T03:12:03;4.80;68.50
9425;DHT22;17139;52.140;11.636;2022-11-15T03:14:34;4.80;68.70
9425;DHT22;17139;52.140;11.636;2022-11-15T03:17:09;4.70;68.70
9425;DHT22;17139;52.140;11.636;2022-11-15T03:19:43;4.70;68.80
9425;DHT22;17139;52.140;11.636;2022-11-15T03:22:13;4.70;68.90
9425;DHT22;17139;52.140;11.636;2022-11-15T03:24:43;4.60;68.90
9425;DHT22;17139;52.140;11.636;2022-11-15T03:27:14;4.60;68.90
9425;DHT22;17139;52.140;11.636;2022-11-15T03:29:45;4.60;68.90
9425;DHT22;17139;52.140;11.636;2022-11-15T03:32:16;4.60;68.90
9425;DHT22;17139;52.140;11.636;2022-11-15T03:34:47;4.60;68.90
9425;DHT22;17139;52.140;11.636;2022-11-15T03:37:17;4.60;68.90
9425;DHT22;17139;52.140;11.636;2022-11-15T03:39:47;4.60;68.90
9425;DHT22;17139;52.140;11.636;2022-11-15T03:42:21;4.70;69.00
9425;DHT22;17139;52.140;11.636;2022-11-15T03:44:54;4.70;68.60
9425;DHT22;17139;52.140;11.636;2022-11-15T03:47:30;5.30;67.90
9425;DHT22;17139;52.140;11.636;2022-11-15T03:50:02;5.20;67.50
9425;DHT22;17139;52.140;11.636;2022-11-15T03:52:32;5.00;67.90
9425;DHT22;17139;52.140;11.636;2022-11-15T03:55:01;4.90;68.30
9425;DHT22;17139;52.140;11.636;2022-11-15T03:57:29;4.80;68.50
9425;DHT22;17139;52.140;11.636;2022-11-15T03:59:56;4.80;68.70
9425;DHT22;17139;52.140;11.636;2022-11-15T04:02:23;4.80;68.70
9425;DHT22;17139;52.140;11.636;2022-11-15T04:04:52;4.70;68.80
9425;DHT22;17139;52.140;11.636;2022-11-15T04:07:19;4.70;68.80
9425;DHT22;17139;52.140;11.636;2022-11-15T04:09:46;4.70;68.80
9425;DHT22;17139;52.140;11.636;2022-11-15T04:12:33;4.60;68.80
9425;DHT22;17139;52.140;11.636;2022-11-15T04:15:02;4.60;68.90
9425;DHT22;17139;52.140;11.636;2022-11-15T04:17:37;4.60;68.90
9425;DHT22;17139;52.140;11.636;2022-11-15T04:20:08;4.60;68.70
9425;DHT22;17139;52.140;11.636;2022-11-15T04:22:54;4.60;68.80
9425;DHT22;17139;52.140;11.636;2022-11-15T04:25:40;5.40;67.80
9425;DHT22;17139;52.140;11.636;2022-11-15T04:28:07;5.20;67.40
9425;DHT22;17139;52.140;11.636;2022-11-15T04:30:34;5.00;67.90
9425;DHT22;17139;52.140;11.636;2022-11-15T04:33:02;4.90;68.30
9425;DHT22;17139;52.140;11.636;2022-11-15T04:35:31;4.80;68.50
9425;DHT22;17139;52.140;11.636;2022-11-15T04:37:58;4.70;68.60
9425;DHT22;17139;52.140;11.636;2022-11-15T04:40:24;4.70;68.70
9425;DHT22;17139;52.140;11.636;2022-11-15T04:42:51;4.60;68.60
9425;DHT22;17139;52.140;11.636;2022-11-15T04:45:18;4.70;68.80
9425;DHT22;17139;52.140;11.636;2022-11-15T04:47:46;4.60;68.70
9425;DHT22;17139;52.140;11.636;2022-11-15T04:50:15;4.60;68.70
9425;DHT22;17139;52.140;11.636;2022-11-15T04:52:50;4.60;68.80
9425;DHT22;17139;52.140;11.636;2022-11-15T04:55:18;4.60;68.80
9425;DHT22;17139;52.140;11.636;2022-11-15T04:57:45;5.10;68.40
9425;DHT22;17139;52.140;11.636;2022-11-15T05:00:14;5.10;67.70
9425;DHT22;17139;52.140;11.636;2022-11-15T05:02:41;5.30;67.70
9425;DHT22;17139;52.140;11.636;2022-11-15T05:05:26;5.20;67.40
9425;DHT22;17139;52.140;11.636;2022-11-15T05:07:54;5.00;68.00
9425;DHT22;17139;52.140;11.636;2022-11-15T05:10:21;4.90;68.40
9425;DHT22;17139;52.140;11.636;2022-11-15T05:12:48;4.80;68.60
9425;DHT22;17139;52.140;11.636;2022-11-15T05:15:15;4.70;68.60
9425;DHT22;17139;52.140;11.636;2022-11-15T05:17:43;4.70;68.70
9425;DHT22;17139;52.140;11.636;2022-11-15T05:20:10;4.70;68.80
9425;DHT22;17139;52.140;11.636;2022-11-15T05:22:38;4.70;68.90
9425;DHT22;17139;52.140;11.636;2022-11-15T05:25:07;4.60;68.80
9425;DHT22;17139;52.140;11.636;2022-11-15T05:27:35;4.60;68.90
9425;DHT22;17139;52.140;11.636;2022-11-15T05:30:02;4.60;68.90
9425;DHT22;17139;52.140;11.636;2022-11-15T05:32:29;4.60;68.90
9425;DHT22;17139;52.140;11.636;2022-11-15T05:34:56;4.80;69.00
9425;DHT22;17139;52.140;11.636;2022-11-15T05:37:23;4.80;68.50
9425;DHT22;17139;52.140;11.636;2022-11-15T05:39:50;4.70;68.60
9425;DHT22;17139;52.140;11.636;2022-11-15T05:42:19;5.00;68.50
9425;DHT22;17139;52.140;11.636;2022-11-15T05:44:47;4.90;67.90
9425;DHT22;17139;52.140;11.636;2022-11-15T05:47:19;4.80;68.30
9425;DHT22;17139;52.140;11.636;2022-11-15T05:49:52;4.70;68.50
9425;DHT22;17139;52.140;11.636;2022-11-15T05:52:24;4.60;68.60
9425;DHT22;17139;52.140;11.636;2022-11-15T05:54:53;4.60;68.80
9425;DHT22;17139;52.140;11.636;2022-11-15T05:57:22;4.50;68.80
9425;DHT22;17139;52.140;11.636;2022-11-15T05:59:49;4.50;68.90
9425;DHT22;17139;52.140;11.636;2022-11-15T06:02:16;4.70;68.90
9425;DHT22;17139;52.140;11.636;2022-11-15T06:04:43;4.70;68.40
9425;DHT22;17139;52.140;11.636;2022-11-15T06:07:10;5.10;67.90
9425;DHT22;17139;52.140;11.636;2022-11-15T06:09:37;5.00;67.40
9425;DHT22;17139;52.140;11.636;2022-11-15T06:12:05;5.50;66.90
9425;DHT22;17139;52.140;11.636;2022-11-15T06:14:33;5.30;66.80
9425;DHT22;17139;52.140;11.636;2022-11-15T06:17:00;5.10;67.60
9425;DHT22;17139;52.140;11.636;2022-11-15T06:19:28;4.90;68.00
9425;DHT22;17139;52.140;11.636;2022-11-15T06:21:58;4.80;68.40
9425;DHT22;17139;52.140;11.636;2022-11-15T06:24:25;4.70;68.60
9425;DHT22;17139;52.140;11.636;2022-11-15T06:26:52;4.60;68.80
9425;DHT22;17139;52.140;11.636;2022-11-15T06:29:20;4.60;68.90
9425;DHT22;17139;52.140;11.636;2022-11-15T06:31:48;4.60;69.00
9425;DHT22;17139;52.140;11.636;2022-11-15T06:34:15;4.50;68.90
9425;DHT22;17139;52.140;11.636;2022-11-15T06:36:42;4.50;68.90
9425;DHT22;17139;52.140;11.636;2022-11-15T06:39:09;5.30;67.90
9425;DHT22;17139;52.140;11.636;2022-11-15T06:41:36;5.10;67.40
9425;DHT22;17139;52.140;11.636;2022-11-15T06:44:03;5.80;66.60
9425;DHT22;17139;52.140;11.636;2022-11-15T06:46:31;5.50;66.60
9425;DHT22;17139;52.140;11.636;2022-11-15T06:48:59;5.20;67.20
9425;DHT22;17139;52.140;11.636;2022-11-15T06:51:26;5.00;67.80
9425;DHT22;17139;52.140;11.636;2022-11-15T06:53:53;4.80;68.20
9425;DHT22;17139;52.140;11.636;2022-11-15T06:56:20;4.80;68.50
9425;DHT22;17139;52.140;11.636;2022-11-15T06:58:48;4.70;68.60
9425;DHT22;17139;52.140;11.636;2022-11-15T07:01:15;5.30;68.10
9425;DHT22;17139;52.140;11.636;2022-11-15T07:03:42;5.10;67.40
9425;DHT22;17139;52.140;11.636;2022-11-15T07:06:12;5.00;68.00
9425;DHT22;17139;52.140;11.636;2022-11-15T07:08:39;4.90;68.30
9425;DHT22;17139;52.140;11.636;2022-11-15T07:11:07;4.80;68.60
9425;DHT22;17139;52.140;11.636;2022-11-15T07:13:35;5.40;68.10
9425;DHT22;17139;52.140;11.636;2022-11-15T07:16:03;5.30;67.50
9425;DHT22;17139;52.140;11.636;2022-11-15T07:18:31;5.10;67.80
9425;DHT22;17139;52.140;11.636;2022-11-15T07:21:01;5.00;68.20
9425;DHT22;17139;52.140;11.636;2022-11-15T07:23:30;5.00;68.50
9425;DHT22;17139;52.140;11.636;2022-11-15T07:25:57;4.90;68.60
9425;DHT22;17139;52.140;11.636;2022-11-15T07:28:25;4.90;68.80
9425;DHT22;17139;52.140;11.636;2022-11-15T07:30:52;4.90;68.80
9425;DHT22;17139;52.140;11.636;2022-11-15T07:33:19;4.90;68.80
9425;DHT22;17139;52.140;11.636;2022-11-15T07:35:46;4.90;68.80
9425;DHT22;17139;52.140;11.636;2022-11-15T07:38:15;4.90;68.80
9425;DHT22;17139;52.140;11.636;2022-11-15T07:40:46;5.60;68.10
9425;DHT22;17139;52.140;11.636;2022-11-15T07:43:13;5.50;67.40
9425;DHT22;17139;52.140;11.636;2022-11-15T07:45:42;6.20;66.90
9425;DHT22;17139;52.140;11.636;2022-11-15T07:48:09;5.90;66.70
9425;DHT22;17139;52.140;11.636;2022-11-15T07:50:37;5.70;67.20
9425;DHT22;17139;52.140;11.636;2022-11-15T07:53:08;5.50;67.80
9425;DHT22;17139;52.140;11.636;2022-11-15T07:55:36;5.40;68.20
9425;DHT22;17139;52.140;11.636;2022-11-15T07:58:05;5.40;68.50
9425;DHT22;17139;52.140;11.636;2022-11-15T08:00:33;5.40;68.60
9425;DHT22;17139;52.140;11.636;2022-11-15T08:03:04;5.40;68.70
9425;DHT22;17139;52.140;11.636;2022-11-15T08:05:32;5.40;68.80
9425;DHT22;17139;52.140;11.636;2022-11-15T08:07:59;5.40;68.70
9425;DHT22;17139;52.140;11.636;2022-11-15T08:10:27;5.40;68.80
9425;DHT22;17139;52.140;11.636;2022-11-15T08:12:58;5.40;68.60
9425;DHT22;17139;52.140;11.636;2022-11-15T08:15:27;5.60;68.80
9425;DHT22;17139;52.140;11.636;2022-11-15T08:17:55;5.50;68.40
9425;DHT22;17139;52.140;11.636;2022-11-15T08:20:23;5.50;68.50
9425;DHT22;17139;52.140;11.636;2022-11-15T08:22:51;5.50;68.50
9425;DHT22;17139;52.140;11.636;2022-11-15T08:25:18;5.60;68.70
9425;DHT22;17139;52.140;11.636;2022-11-15T08:27:45;5.60;68.60
9425;DHT22;17139;52.140;11.636;2022-11-15T08:30:13;5.60;68.60
9425;DHT22;17139;52.140;11.636;2022-11-15T08:32:43;5.70;68.60
9425;DHT22;17139;52.140;11.636;2022-11-15T08:35:10;5.70;68.60
9425;DHT22;17139;52.140;11.636;2022-11-15T08:37:37;5.70;68.50
9425;DHT22;17139;52.140;11.636;2022-11-15T08:40:05;5.70;68.50
9425;DHT22;17139;52.140;11.636;2022-11-15T08:42:33;6.00;68.80
9425;DHT22;17139;52.140;11.636;2022-11-15T08:45:00;6.00;68.10
9425;DHT22;17139;52.140;11.636;2022-11-15T08:47:27;6.30;68.20
9425;DHT22;17139;52.140;11.636;2022-11-15T08:49:55;6.20;67.60
9425;DHT22;17139;52.140;11.636;2022-11-15T08:52:22;6.20;67.80
9425;DHT22;17139;52.140;11.636;2022-11-15T08:54:49;6.10;68.00
9425;DHT22;17139;52.140;11.636;2022-11-15T08:57:16;6.20;68.20
9425;DHT22;17139;52.140;11.636;2022-11-15T08:59:43;6.20;68.30
9425;DHT22;17139;52.140;11.636;2022-11-15T09:02:12;6.20;68.20
9425;DHT22;17139;52.140;11.636;2022-11-15T09:04:40;6.20;68.20
9425;DHT22;17139;52.140;11.636;2022-11-15T09:07:10;6.30;68.20
9425;DHT22;17139;52.140;11.636;2022-11-15T09:09:37;6.40;67.20
9425;DHT22;17139;52.140;11.636;2022-11-15T09:12:05;6.40;67.10
9425;DHT22;17139;52.140;11.636;2022-11-15T09:14:33;6.80;67.10
9425;DHT22;17139;52.140;11.636;2022-11-15T09:17:00;6.80;66.30
9425;DHT22;17139;52.140;11.636;2022-11-15T09:19:27;7.00;66.40
9425;DHT22;17139;52.140;11.636;2022-11-15T09:21:55;7.00;66.20
9425;DHT22;17139;52.140;11.636;2022-11-15T09:24:23;6.90;66.40
9425;DHT22;17139;52.140;11.636;2022-11-15T09:26:50;6.90;66.70
9425;DHT22;17139;52.140;11.636;2022-11-15T09:29:17;6.90;66.80
9425;DHT22;17139;52.140;11.636;2022-11-15T09:31:45;6.90;66.80
9425;DHT22;17139;52.140;11.636;2022-11-15T09:34:12;7.00;67.60
9425;DHT22;17139;52.140;11.636;2022-11-15T09:36:39;7.00;66.80
9425;DHT22;17139;52.140;11.636;2022-11-15T09:39:06;7.00;66.80
9425;DHT22;17139;52.140;11.636;2022-11-15T09:41:53;7.10;66.80
9425;DHT22;17139;52.140;11.636;2022-11-15T09:44:38;7.20;66.90
9425;DHT22;17139;52.140;11.636;2022-11-15T09:47:27;7.20;66.90
9425;DHT22;17139;52.140;11.636;2022-11-15T09:49:58;7.30;66.90
9425;DHT22;17139;52.140;11.636;2022-11-15T09:52:26;7.30;66.80
9425;DHT22;17139;52.140;11.636;2022-11-15T09:54:54;8.10;65.50
9425;DHT22;17139;52.140;11.636;2022-11-15T09:57:30;8.00;65.30
9425;DHT22;17139;52.140;11.636;2022-11-15T10:00:09;7.90;65.70
9425;DHT22;17139;52.140;11.636;2022-11-15T10:02:48;7.80;66.10
9425;DHT22;17139;52.140;11.636;2022-11-15T10:05:19;7.80;66.30
9425;DHT22;17139;52.140;11.636;2022-11-15T10:07:52;7.80;66.50
9425;DHT22;17139;52.140;11.636;2022-11-15T10:10:27;7.80;66.60
9425;DHT22;17139;52.140;11.636;2022-11-15T10:12:58;7.90;66.60
9425;DHT22;17139;52.140;11.636;2022-11-15T10:15:26;7.90;66.70
9425;DHT22;17139;52.140;11.636;2022-11-15T10:18:09;7.90;66.60
9425;DHT22;17139;52.140;11.636;2022-11-15T10:20:48;8.00;67.30
9425;DHT22;17139;52.140;11.636;2022-11-15T10:23:18;8.80;65.10
9425;DHT22;17139;52.140;11.636;2022-11-15T10:25:46;9.00;64.80
9425;DHT22;17139;52.140;11.636;2022-11-15T10:28:17;8.70;65.00
9425;DHT22;17139;52.140;11.636;2022-11-15T10:30:46;8.60;65.60
9425;DHT22;17139;52.140;11.636;2022-11-15T10:33:21;8.50;66.10
9425;DHT22;17139;52.140;11.636;2022-11-15T10:36:18;8.50;66.30
9425;DHT22;17139;52.140;11.636;2022-11-15T10:38:56;8.50;66.50
9425;DHT22;17139;52.140;11.636;2022-11-15T10:41:37;8.50;66.70
9425;DHT22;17139;52.140;11.636;2022-11-15T10:44:12;8.50;66.70
9425;DHT22;17139;52.140;11.636;2022-11-15T10:46:45;8.50;66.70
9425;DHT22;17139;52.140;11.636;2022-11-15T10:49:15;8.50;66.70
9425;DHT22;17139;52.140;11.636;2022-11-15T10:51:46;8.60;66.80
9425;DHT22;17139;52.140;11.636;2022-11-15T10:54:20;8.60;66.80
9425;DHT22;17139;52.140;11.636;2022-11-15T10:56:51;8.60;66.80
9425;DHT22;17139;52.140;11.636;2022-11-15T10:59:24;8.60;66.80
9425;DHT22;17139;52.140;11.636;2022-11-15T11:01:52;8.60;66.80
9425;DHT22;17139;52.140;11.636;2022-11-15T11:04:20;8.60;66.90
9425;DHT22;17139;52.140;11.636;2022-11-15T11:06:50;8.70;66.90
9425;DHT22;17139;52.140;11.636;2022-11-15T11:09:29;8.70;67.00
9425;DHT22;17139;52.140;11.636;2022-11-15T11:11:57;8.70;67.10
9425;DHT22;17139;52.140;11.636;2022-11-15T11:14:26;8.70;67.00
9425;DHT22;17139;52.140;11.636;2022-11-15T11:16:57;8.70;67.10
9425;DHT22;17139;52.140;11.636;2022-11-15T11:19:44;9.00;67.00
9425;DHT22;17139;52.140;11.636;2022-11-15T11:22:20;9.00;66.70
9425;DHT22;17139;52.140;11.636;2022-11-15T11:24:56;9.40;66.40
9425;DHT22;17139;52.140;11.636;2022-11-15T11:27:36;9.40;66.30
9425;DHT22;17139;52.140;11.636;2022-11-15T11:30:11;9.30;66.50
9425;DHT22;17139;52.140;11.636;2022-11-15T11:32:59;9.20;66.70
9425;DHT22;17139;52.140;11.636;2022-11-15T11:35:30;9.30;66.90
9425;DHT22;17139;52.140;11.636;2022-11-15T11:38:12;9.20;67.00
9425;DHT22;17139;52.140;11.636;2022-11-15T11:40:48;9.30;67.10
9425;DHT22;17139;52.140;11.636;2022-11-15T11:43:27;9.30;67.10
9425;DHT22;17139;52.140;11.636;2022-11-15T11:46:14;9.30;67.00
9425;DHT22;17139;52.140;11.636;2022-11-15T11:48:46;9.40;67.10
9425;DHT22;17139;52.140;11.636;2022-11-15T11:51:19;9.40;67.20
9425;DHT22;17139;52.140;11.636;2022-11-15T11:53:52;9.50;67.10
9425;DHT22;17139;52.140;11.636;2022-11-15T11:56:25;9.50;66.90
9425;DHT22;17139;52.140;11.636;2022-11-15T11:58:55;9.60;67.00
9425;DHT22;17139;52.140;11.636;2022-11-15T12:01:25;9.60;67.00
9425;DHT22;17139;52.140;11.636;2022-11-15T12:03:59;9.60;67.00
9425;DHT22;17139;52.140;11.636;2022-11-15T12:06:31;9.60;66.90
9425;DHT22;17139;52.140;11.636;2022-11-15T12:09:03;9.70;67.10
9425;DHT22;17139;52.140;11.636;2022-11-15T12:11:37;9.70;67.10
9425;DHT22;17139;52.140;11.636;2022-11-15T12:14:12;9.70;67.00
9425;DHT22;17139;52.140;11.636;2022-11-15T12:16:59;10.40;65.60
9425;DHT22;17139;52.140;11.636;2022-11-15T12:19:26;10.20;65.80
9425;DHT22;17139;52.140;11.636;2022-11-15T12:21:59;10.00;66.20
9425;DHT22;17139;52.140;11.636;2022-11-15T12:24:32;10.70;64.70
9425;DHT22;17139;52.140;11.636;2022-11-15T12:27:03;10.50;65.20
9425;DHT22;17139;52.140;11.636;2022-11-15T12:29:37;11.10;64.00
9425;DHT22;17139;52.140;11.636;2022-11-15T12:32:10;10.80;64.70
9425;DHT22;17139;52.140;11.636;2022-11-15T12:34:43;10.50;65.50
9425;DHT22;17139;52.140;11.636;2022-11-15T12:40:28;10.40;66.20
9425;DHT22;17139;52.140;11.636;2022-11-15T12:43:07;10.30;66.60
9425;DHT22;17139;52.140;11.636;2022-11-15T12:45:39;10.30;66.70
9425;DHT22;17139;52.140;11.636;2022-11-15T12:54:58;10.40;66.80
9425;DHT22;17139;52.140;11.636;2022-11-15T12:57:32;10.50;66.40
9425;DHT22;17139;52.140;11.636;2022-11-15T13:00:02;10.50;66.50
9425;DHT22;17139;52.140;11.636;2022-11-15T13:02:33;10.70;66.10
9425;DHT22;17139;52.140;11.636;2022-11-15T13:08:35;10.60;66.20
9425;DHT22;17139;52.140;11.636;2022-11-15T13:17:34;10.50;66.70
9425;DHT22;17139;52.140;11.636;2022-11-15T13:20:20;10.50;66.80
9425;DHT22;17139;52.140;11.636;2022-11-15T13:22:48;10.50;67.00
9425;DHT22;17139;52.140;11.636;2022-11-15T13:25:44;10.40;67.00
9425;DHT22;17139;52.140;11.636;2022-11-15T13:28:24;10.40;67.10
9425;DHT22;17139;52.140;11.636;2022-11-15T13:30:55;10.30;67.30
9425;DHT22;17139;52.140;11.636;2022-11-15T13:33:25;11.10;64.80
9425;DHT22;17139;52.140;11.636;2022-11-15T13:35:54;10.90;65.40
9425;DHT22;17139;52.140;11.636;2022-11-15T13:38:26;11.20;64.80
9425;DHT22;17139;52.140;11.636;2022-11-15T13:40:54;11.00;65.30
9425;DHT22;17139;52.140;11.636;2022-11-15T13:43:30;10.70;66.10
9425;DHT22;17139;52.140;11.636;2022-11-15T13:46:11;10.60;66.50
9425;DHT22;17139;52.140;11.636;2022-11-15T13:48:39;10.50;66.90
9425;DHT22;17139;52.140;11.636;2022-11-15T13:51:10;10.40;67.20
9425;DHT22;17139;52.140;11.636;2022-11-15T13:53:42;11.10;65.40
9425;DHT22;17139;52.140;11.636;2022-11-15T13:56:12;11.00;65.70
9425;DHT22;17139;52.140;11.636;2022-11-15T13:58:39;10.90;66.30
9425;DHT22;17139;52.140;11.636;2022-11-15T14:01:13;11.10;65.70
9425;DHT22;17139;52.140;11.636;2022-11-15T14:03:47;11.10;65.90
9425;DHT22;17139;52.140;11.636;2022-11-15T14:06:18;11.10;66.40
9425;DHT22;17139;52.140;11.636;2022-11-15T14:11:50;11.60;64.80
9425;DHT22;17139;52.140;11.636;2022-11-15T14:14:20;11.40;65.70
9425;DHT22;17139;52.140;11.636;2022-11-15T14:16:51;11.30;66.10
9425;DHT22;17139;52.140;11.636;2022-11-15T14:19:39;11.30;66.40
9425;DHT22;17139;52.140;11.636;2022-11-15T14:22:21;11.20;66.40
9425;DHT22;17139;52.140;11.636;2022-11-15T14:25:16;11.10;66.50
9425;DHT22;17139;52.140;11.636;2022-11-15T14:28:07;11.20;66.60
9425;DHT22;17139;52.140;11.636;2022-11-15T14:30:34;11.20;67.00
9425;DHT22;17139;52.140;11.636;2022-11-15T14:33:17;11.10;66.90
9425;DHT22;17139;52.140;11.636;2022-11-15T14:35:45;11.40;65.90
9425;DHT22;17139;52.140;11.636;2022-11-15T14:38:12;11.30;66.30
9425;DHT22;17139;52.140;11.636;2022-11-15T14:40:39;11.50;65.60
9425;DHT22;17139;52.140;11.636;2022-11-15T14:43:08;11.40;65.80
9425;DHT22;17139;52.140;11.636;2022-11-15T14:45:36;11.30;66.40
9425;DHT22;17139;52.140;11.636;2022-11-15T14:48:05;11.20;66.60
9425;DHT22;17139;52.140;11.636;2022-11-15T14:50:33;11.10;66.70
9425;DHT22;17139;52.140;11.636;2022-11-15T14:53:01;11.00;66.90
9425;DHT22;17139;52.140;11.636;2022-11-15T14:55:30;11.00;67.10
9425;DHT22;17139;52.140;11.636;2022-11-15T14:57:59;11.00;67.20
9425;DHT22;17139;52.140;11.636;2022-11-15T15:00:28;10.90;67.30
9425;DHT22;17139;52.140;11.636;2022-11-15T15:02:55;10.80;67.30
9425;DHT22;17139;52.140;11.636;2022-11-15T15:05:27;10.80;67.40
9425;DHT22;17139;52.140;11.636;2022-11-15T15:07:55;10.90;67.10
9425;DHT22;17139;52.140;11.636;2022-11-15T15:10:30;10.80;67.10
9425;DHT22;17139;52.140;11.636;2022-11-15T15:12:57;10.70;67.30
9425;DHT22;17139;52.140;11.636;2022-11-15T15:15:26;11.10;65.80
9425;DHT22;17139;52.140;11.636;2022-11-15T15:17:58;10.90;66.20
9425;DHT22;17139;52.140;11.636;2022-11-15T15:20:26;10.80;66.80
9425;DHT22;17139;52.140;11.636;2022-11-15T15:22:54;10.60;67.20
9425;DHT22;17139;52.140;11.636;2022-11-15T15:25:23;10.50;67.50
9425;DHT22;17139;52.140;11.636;2022-11-15T15:27:52;10.40;67.70
9425;DHT22;17139;52.140;11.636;2022-11-15T15:30:20;10.30;67.80
9425;DHT22;17139;52.140;11.636;2022-11-15T15:32:47;10.30;68.10
9425;DHT22;17139;52.140;11.636;2022-11-15T15:35:14;10.20;68.10
9425;DHT22;17139;52.140;11.636;2022-11-15T15:37:45;10.20;68.10
9425;DHT22;17139;52.140;11.636;2022-11-15T15:40:16;10.20;68.10
9425;DHT22;17139;52.140;11.636;2022-11-15T15:42:43;10.20;68.20
9425;DHT22;17139;52.140;11.636;2022-11-15T15:45:11;10.20;68.20
9425;DHT22;17139;52.140;11.636;2022-11-15T15:47:38;10.40;67.80
9425;DHT22;17139;52.140;11.636;2022-11-15T15:50:17;10.30;67.50
9425;DHT22;17139;52.140;11.636;2022-11-15T15:52:48;10.30;67.70
9425;DHT22;17139;52.140;11.636;2022-11-15T15:55:15;10.20;68.00
9425;DHT22;17139;52.140;11.636;2022-11-15T15:57:42;10.20;68.10
9425;DHT22;17139;52.140;11.636;2022-11-15T16:00:10;10.20;68.10
9425;DHT22;17139;52.140;11.636;2022-11-15T16:02:38;10.20;68.10
9425;DHT22;17139;52.140;11.636;2022-11-15T16:05:06;10.20;68.10
9425;DHT22;17139;52.140;11.636;2022-11-15T16:07:33;10.10;68.10
9425;DHT22;17139;52.140;11.636;2022-11-15T16:10:08;10.10;68.10
9425;DHT22;17139;52.140;11.636;2022-11-15T16:12:41;10.10;68.20
9425;DHT22;17139;52.140;11.636;2022-11-15T16:15:08;10.60;67.20
9425;DHT22;17139;52.140;11.636;2022-11-15T16:17:39;10.50;67.10
9425;DHT22;17139;52.140;11.636;2022-11-15T16:20:20;10.80;66.30
9425;DHT22;17139;52.140;11.636;2022-11-15T16:22:48;10.60;66.70
9425;DHT22;17139;52.140;11.636;2022-11-15T16:25:16;10.40;67.40
9425;DHT22;17139;52.140;11.636;2022-11-15T16:27:43;10.30;67.70
9425;DHT22;17139;52.140;11.636;2022-11-15T16:30:14;10.20;68.00
9425;DHT22;17139;52.140;11.636;2022-11-15T16:32:42;10.10;68.00
9425;DHT22;17139;52.140;11.636;2022-11-15T16:35:11;10.10;68.20